sensor_id;sensor_type;location;lat;lon;timestamp;P1;durP1;ratioP1;P2;durP2;ratioP2
5127;SDS011;2582;48.770;9.190;2023-04-03T00:01:27;5.17;;;3.63;;
5127;SDS011;2582;48.770;9.190;2023-04-03T00:03:53;9.00;;;4.73;;
5127;SDS011;2582;48.770;9.190;2023-04-03T00:06:19;4.67;;;4.10;;
5127;SDS011;2582;48.770;9.190;2023-04-03T00:08:45;3.60;;;3.00;;
5127;SDS011;2582;48.770;9.190;2023-04-03T00:11:10;10.10;;;5.00;;
5127;SDS011;2582;48.770;9.190;2023-04-03T00:13:37;4.13;;;3.73;;
5127;SDS011;2582;48.770;9.190;2023-04-03T00:16:03;9.00;;;5.67;;
5127;SDS011;2582;48.770;9.190;2023-04-03T00:18:29;7.27;;;4.60;;
5127;SDS011;2582;48.770;9.190;2023-04-03T00:20:55;4.67;;;3.90;;
5127;SDS011;2582;48.770;9.190;2023-04-03T00:23:20;5.27;;;3.90;;
5127;SDS011;2582;48.770;9.190;2023-04-03T00:25:48;4.20;;;3.83;;
5127;SDS011;2582;48.770;9.190;2023-04-03T00:28:14;3.87;;;3.53;;
5127;SDS011;2582;48.770;9.190;2023-04-03T00:30:40;4.30;;;3.90;;
5127;SDS011;2582;48.770;9.190;2023-04-03T00:33:05;4.00;;;3.47;;
5127;SDS011;2582;48.770;9.190;2023-04-03T00:35:31;4.33;;;3.60;;
5127;SDS011;2582;48.770;9.190;2023-04-03T00:37:58;4.63;;;3.13;;
5127;SDS011;2582;48.770;9.190;2023-04-03T00:40:24;6.03;;;3.50;;
5127;SDS011;2582;48.770;9.190;2023-04-03T00:42:52;4.40;;;4.00;;
5127;SDS011;2582;48.770;9.190;2023-04-03T00:45:36;4.23;;;3.83;;
5127;SDS011;2582;48.770;9.190;2023-04-03T00:48:05;3.10;;;2.80;;
5127;SDS011;2582;48.770;9.190;2023-04-03T00:50:35;3.77;;;3.33;;
5127;SDS011;2582;48.770;9.190;2023-04-03T00:53:03;4.20;;;3.63;;
5127;SDS011;2582;48.770;9.190;2023-04-03T00:55:31;4.33;;;3.70;;
5127;SDS011;2582;48.770;9.190;2023-04-03T00:57:57;6.63;;;4.10;;
5127;SDS011;2582;48.770;9.190;2023-04-03T01:00:24;3.80;;;3.50;;
5127;SDS011;2582;48.770;9.190;2023-04-03T01:02:50;4.00;;;3.70;;
5127;SDS011;2582;48.770;9.190;2023-04-03T01:05:17;3.80;;;3.50;;
5127;SDS011;2582;48.770;9.190;2023-04-03T01:07:44;3.87;;;3.57;;
5127;SDS011;2582;48.770;9.190;2023-04-03T01:10:11;4.57;;;4.10;;
5127;SDS011;2582;48.770;9.190;2023-04-03T01:12:40;5.37;;;4.87;;
5127;SDS011;2582;48.770;9.190;2023-04-03T01:15:08;4.00;;;3.40;;
5127;SDS011;2582;48.770;9.190;2023-04-03T01:17:37;3.90;;;3.40;;
5127;SDS011;2582;48.770;9.190;2023-04-03T01:25:36;5.63;;;3.60;;
5127;SDS011;2582;48.770;9.190;2023-04-03T01:28:05;4.07;;;3.67;;
5127;SDS011;2582;48.770;9.190;2023-04-03T01:30:33;4.10;;;3.70;;
5127;SDS011;2582;48.770;9.190;2023-04-03T01:33:01;4.50;;;3.80;;
5127;SDS011;2582;48.770;9.190;2023-04-03T01:35:27;4.20;;;3.57;;
5127;SDS011;2582;48.770;9.190;2023-04-03T01:37:53;3.87;;;3.50;;
5127;SDS011;2582;48.770;9.190;2023-04-03T01:40:18;4.20;;;3.80;;
5127;SDS011;2582;48.770;9.190;2023-04-03T01:42:44;4.10;;;3.70;;
5127;SDS011;2582;48.770;9.190;2023-04-03T01:45:10;5.07;;;4.07;;
5127;SDS011;2582;48.770;9.190;2023-04-03T01:47:35;5.10;;;3.57;;
5127;SDS011;2582;48.770;9.190;2023-04-03T01:50:01;4.30;;;3.87;;
5127;SDS011;2582;48.770;9.190;2023-04-03T01:52:27;5.03;;;4.47;;
5127;SDS011;2582;48.770;9.190;2023-04-03T01:54:53;4.37;;;3.97;;
5127;SDS011;2582;48.770;9.190;2023-04-03T01:57:18;4.60;;;4.20;;
5127;SDS011;2582;48.770;9.190;2023-04-03T01:59:44;4.83;;;4.23;;
5127;SDS011;2582;48.770;9.190;2023-04-03T02:02:09;4.63;;;4.23;;
5127;SDS011;2582;48.770;9.190;2023-04-03T02:04:37;3.80;;;3.37;;
5127;SDS011;2582;48.770;9.190;2023-04-03T02:07:02;5.23;;;4.73;;
5127;SDS011;2582;48.770;9.190;2023-04-03T02:09:28;8.30;;;5.77;;
5127;SDS011;2582;48.770;9.190;2023-04-03T02:11:54;7.50;;;5.47;;
5127;SDS011;2582;48.770;9.190;2023-04-03T02:14:20;5.00;;;4.50;;
5127;SDS011;2582;48.770;9.190;2023-04-03T02:16:46;4.67;;;4.10;;
5127;SDS011;2582;48.770;9.190;2023-04-03T02:19:12;7.47;;;5.07;;
5127;SDS011;2582;48.770;9.190;2023-04-03T02:21:37;6.47;;;5.20;;
5127;SDS011;2582;48.770;9.190;2023-04-03T02:24:03;4.10;;;3.80;;
5127;SDS011;2582;48.770;9.190;2023-04-03T02:26:29;4.57;;;3.70;;
5127;SDS011;2582;48.770;9.190;2023-04-03T02:28:54;4.87;;;4.47;;
5127;SDS011;2582;48.770;9.190;2023-04-03T02:31:20;4.57;;;3.40;;
5127;SDS011;2582;48.770;9.190;2023-04-03T02:33:46;4.17;;;3.60;;
5127;SDS011;2582;48.770;9.190;2023-04-03T02:36:11;3.73;;;3.33;;
5127;SDS011;2582;48.770;9.190;2023-04-03T02:38:37;3.70;;;3.40;;
5127;SDS011;2582;48.770;9.190;2023-04-03T02:41:03;8.43;;;3.73;;
5127;SDS011;2582;48.770;9.190;2023-04-03T02:43:30;6.23;;;3.53;;
5127;SDS011;2582;48.770;9.190;2023-04-03T02:45:56;4.33;;;3.90;;
5127;SDS011;2582;48.770;9.190;2023-04-03T02:48:22;3.60;;;3.30;;
5127;SDS011;2582;48.770;9.190;2023-04-03T02:50:48;3.73;;;3.43;;
5127;SDS011;2582;48.770;9.190;2023-04-03T02:53:14;4.20;;;3.80;;
5127;SDS011;2582;48.770;9.190;2023-04-03T02:55:41;4.50;;;4.10;;
5127;SDS011;2582;48.770;9.190;2023-04-03T02:58:06;5.30;;;4.43;;
5127;SDS011;2582;48.770;9.190;2023-04-03T03:00:32;3.73;;;3.53;;
5127;SDS011;2582;48.770;9.190;2023-04-03T03:02:58;4.03;;;3.63;;
5127;SDS011;2582;48.770;9.190;2023-04-03T03:05:23;4.83;;;4.43;;
5127;SDS011;2582;48.770;9.190;2023-04-03T03:07:49;4.53;;;4.00;;
5127;SDS011;2582;48.770;9.190;2023-04-03T03:10:15;4.23;;;3.80;;
5127;SDS011;2582;48.770;9.190;2023-04-03T03:12:40;4.70;;;3.87;;
5127;SDS011;2582;48.770;9.190;2023-04-03T03:15:06;4.83;;;4.13;;
5127;SDS011;2582;48.770;9.190;2023-04-03T03:17:32;4.20;;;3.90;;
5127;SDS011;2582;48.770;9.190;2023-04-03T03:19:58;4.50;;;4.10;;
5127;SDS011;2582;48.770;9.190;2023-04-03T03:22:25;5.00;;;3.40;;
5127;SDS011;2582;48.770;9.190;2023-04-03T03:24:51;3.83;;;3.50;;
5127;SDS011;2582;48.770;9.190;2023-04-03T03:27:16;3.77;;;3.47;;
5127;SDS011;2582;48.770;9.190;2023-04-03T03:29:42;3.57;;;3.13;;
5127;SDS011;2582;48.770;9.190;2023-04-03T03:32:08;3.40;;;3.10;;
5127;SDS011;2582;48.770;9.190;2023-04-03T03:34:33;3.47;;;3.17;;
5127;SDS011;2582;48.770;9.190;2023-04-03T03:36:59;3.93;;;3.53;;
5127;SDS011;2582;48.770;9.190;2023-04-03T03:39:25;4.53;;;3.30;;
5127;SDS011;2582;48.770;9.190;2023-04-03T03:41:51;4.43;;;3.30;;
5127;SDS011;2582;48.770;9.190;2023-04-03T03:44:18;5.90;;;3.60;;
5127;SDS011;2582;48.770;9.190;2023-04-03T03:46:44;4.33;;;3.20;;
5127;SDS011;2582;48.770;9.190;2023-04-03T03:49:10;3.83;;;3.53;;
5127;SDS011;2582;48.770;9.190;2023-04-03T03:51:36;3.20;;;2.90;;
5127;SDS011;2582;48.770;9.190;2023-04-03T03:54:02;6.50;;;4.60;;
5127;SDS011;2582;48.770;9.190;2023-04-03T03:56:28;4.07;;;3.67;;
5127;SDS011;2582;48.770;9.190;2023-04-03T03:58:54;4.10;;;3.60;;
5127;SDS011;2582;48.770;9.190;2023-04-03T04:01:21;6.43;;;4.37;;
5127;SDS011;2582;48.770;9.190;2023-04-03T04:03:47;5.87;;;3.10;;
5127;SDS011;2582;48.770;9.190;2023-04-03T04:06:12;3.97;;;3.60;;
5127;SDS011;2582;48.770;9.190;2023-04-03T04:08:39;5.03;;;3.53;;
5127;SDS011;2582;48.770;9.190;2023-04-03T04:11:04;4.80;;;3.70;;
5127;SDS011;2582;48.770;9.190;2023-04-03T04:13:30;4.60;;;3.70;;
5127;SDS011;2582;48.770;9.190;2023-04-03T04:15:56;3.87;;;3.50;;
5127;SDS011;2582;48.770;9.190;2023-04-03T04:18:21;3.50;;;3.20;;
5127;SDS011;2582;48.770;9.190;2023-04-03T04:20:47;4.10;;;3.70;;
5127;SDS011;2582;48.770;9.190;2023-04-03T04:23:13;4.50;;;3.47;;
5127;SDS011;2582;48.770;9.190;2023-04-03T04:25:39;4.90;;;4.13;;
5127;SDS011;2582;48.770;9.190;2023-04-03T04:28:05;3.93;;;3.63;;
5127;SDS011;2582;48.770;9.190;2023-04-03T04:30:31;7.10;;;4.10;;
5127;SDS011;2582;48.770;9.190;2023-04-03T04:32:56;4.87;;;4.37;;
5127;SDS011;2582;48.770;9.190;2023-04-03T04:35:22;4.40;;;3.53;;
5127;SDS011;2582;48.770;9.190;2023-04-03T04:37:48;4.73;;;3.43;;
5127;SDS011;2582;48.770;9.190;2023-04-03T04:40:13;3.47;;;3.17;;
5127;SDS011;2582;48.770;9.190;2023-04-03T04:42:39;4.20;;;3.60;;
5127;SDS011;2582;48.770;9.190;2023-04-03T04:45:05;3.97;;;3.57;;
5127;SDS011;2582;48.770;9.190;2023-04-03T04:47:31;4.83;;;3.60;;
5127;SDS011;2582;48.770;9.190;2023-04-03T04:49:56;4.27;;;3.87;;
5127;SDS011;2582;48.770;9.190;2023-04-03T04:52:22;6.73;;;3.60;;
5127;SDS011;2582;48.770;9.190;2023-04-03T04:54:47;3.63;;;3.20;;
5127;SDS011;2582;48.770;9.190;2023-04-03T04:57:13;4.80;;;3.80;;
5127;SDS011;2582;48.770;9.190;2023-04-03T04:59:38;3.60;;;3.30;;
5127;SDS011;2582;48.770;9.190;2023-04-03T05:02:04;3.27;;;2.97;;
5127;SDS011;2582;48.770;9.190;2023-04-03T05:04:29;4.33;;;3.53;;
5127;SDS011;2582;48.770;9.190;2023-04-03T05:06:55;5.80;;;3.50;;
5127;SDS011;2582;48.770;9.190;2023-04-03T05:09:21;6.10;;;3.40;;
5127;SDS011;2582;48.770;9.190;2023-04-03T05:11:47;4.37;;;3.30;;
5127;SDS011;2582;48.770;9.190;2023-04-03T05:14:12;3.60;;;3.03;;
5127;SDS011;2582;48.770;9.190;2023-04-03T05:16:38;3.83;;;3.50;;
5127;SDS011;2582;48.770;9.190;2023-04-03T05:19:03;4.67;;;2.90;;
5127;SDS011;2582;48.770;9.190;2023-04-03T05:21:29;3.93;;;3.30;;
5127;SDS011;2582;48.770;9.190;2023-04-03T05:23:57;3.63;;;3.10;;
5127;SDS011;2582;48.770;9.190;2023-04-03T05:26:24;4.53;;;2.97;;
5127;SDS011;2582;48.770;9.190;2023-04-03T05:28:51;3.50;;;3.20;;
5127;SDS011;2582;48.770;9.190;2023-04-03T05:31:16;5.33;;;3.20;;
5127;SDS011;2582;48.770;9.190;2023-04-03T05:33:42;4.27;;;3.00;;
5127;SDS011;2582;48.770;9.190;2023-04-03T05:36:08;3.93;;;3.57;;
5127;SDS011;2582;48.770;9.190;2023-04-03T05:38:33;4.83;;;3.37;;
5127;SDS011;2582;48.770;9.190;2023-04-03T05:40:59;3.60;;;3.30;;
5127;SDS011;2582;48.770;9.190;2023-04-03T05:43:25;3.50;;;3.20;;
5127;SDS011;2582;48.770;9.190;2023-04-03T05:45:50;3.87;;;3.47;;
5127;SDS011;2582;48.770;9.190;2023-04-03T05:48:18;4.00;;;3.60;;
5127;SDS011;2582;48.770;9.190;2023-04-03T05:50:43;5.73;;;3.70;;
5127;SDS011;2582;48.770;9.190;2023-04-03T05:53:22;3.90;;;3.50;;
5127;SDS011;2582;48.770;9.190;2023-04-03T05:55:52;6.47;;;4.57;;
5127;SDS011;2582;48.770;9.190;2023-04-03T05:58:18;5.87;;;4.77;;
5127;SDS011;2582;48.770;9.190;2023-04-03T06:00:44;6.37;;;3.77;;
5127;SDS011;2582;48.770;9.190;2023-04-03T06:03:10;5.07;;;4.30;;
5127;SDS011;2582;48.770;9.190;2023-04-03T06:05:36;4.17;;;3.30;;
5127;SDS011;2582;48.770;9.190;2023-04-03T06:08:02;5.17;;;4.03;;
5127;SDS011;2582;48.770;9.190;2023-04-03T06:10:28;7.20;;;4.30;;
5127;SDS011;2582;48.770;9.190;2023-04-03T06:12:53;4.57;;;3.80;;
5127;SDS011;2582;48.770;9.190;2023-04-03T06:15:19;9.47;;;4.50;;
5127;SDS011;2582;48.770;9.190;2023-04-03T06:17:46;6.00;;;5.17;;
5127;SDS011;2582;48.770;9.190;2023-04-03T06:20:11;3.90;;;3.60;;
5127;SDS011;2582;48.770;9.190;2023-04-03T06:22:38;4.43;;;3.60;;
5127;SDS011;2582;48.770;9.190;2023-04-03T06:25:04;4.10;;;3.40;;
5127;SDS011;2582;48.770;9.190;2023-04-03T06:27:31;3.50;;;3.20;;
5127;SDS011;2582;48.770;9.190;2023-04-03T06:29:56;7.17;;;4.50;;
5127;SDS011;2582;48.770;9.190;2023-04-03T06:32:22;3.33;;;3.03;;
5127;SDS011;2582;48.770;9.190;2023-04-03T06:34:48;5.93;;;4.10;;
5127;SDS011;2582;48.770;9.190;2023-04-03T06:37:17;4.43;;;3.70;;
5127;SDS011;2582;48.770;9.190;2023-04-03T06:39:45;3.67;;;3.37;;
5127;SDS011;2582;48.770;9.190;2023-04-03T06:42:11;4.83;;;3.27;;
5127;SDS011;2582;48.770;9.190;2023-04-03T06:44:37;9.03;;;4.43;;
5127;SDS011;2582;48.770;9.190;2023-04-03T06:47:02;5.13;;;3.47;;
5127;SDS011;2582;48.770;9.190;2023-04-03T06:49:28;5.07;;;3.77;;
5127;SDS011;2582;48.770;9.190;2023-04-03T06:51:54;3.33;;;3.03;;
5127;SDS011;2582;48.770;9.190;2023-04-03T06:54:21;4.13;;;3.70;;
5127;SDS011;2582;48.770;9.190;2023-04-03T06:56:47;5.13;;;4.00;;
5127;SDS011;2582;48.770;9.190;2023-04-03T06:59:13;4.40;;;3.53;;
5127;SDS011;2582;48.770;9.190;2023-04-03T07:01:39;5.43;;;3.10;;
5127;SDS011;2582;48.770;9.190;2023-04-03T07:04:05;8.00;;;4.90;;
5127;SDS011;2582;48.770;9.190;2023-04-03T07:06:31;6.17;;;3.60;;
5127;SDS011;2582;48.770;9.190;2023-04-03T07:08:58;5.17;;;3.90;;
5127;SDS011;2582;48.770;9.190;2023-04-03T07:11:24;9.90;;;5.30;;
5127;SDS011;2582;48.770;9.190;2023-04-03T07:13:51;4.70;;;3.70;;
5127;SDS011;2582;48.770;9.190;2023-04-03T07:16:17;3.50;;;3.20;;
5127;SDS011;2582;48.770;9.190;2023-04-03T07:18:43;4.33;;;3.93;;
5127;SDS011;2582;48.770;9.190;2023-04-03T07:21:09;4.23;;;3.30;;
5127;SDS011;2582;48.770;9.190;2023-04-03T07:23:35;4.40;;;3.50;;
5127;SDS011;2582;48.770;9.190;2023-04-03T07:26:01;7.20;;;4.60;;
5127;SDS011;2582;48.770;9.190;2023-04-03T07:28:27;3.27;;;2.93;;
5127;SDS011;2582;48.770;9.190;2023-04-03T07:30:54;5.27;;;3.93;;
5127;SDS011;2582;48.770;9.190;2023-04-03T07:33:25;3.70;;;3.40;;
5127;SDS011;2582;48.770;9.190;2023-04-03T07:35:51;6.20;;;3.80;;
5127;SDS011;2582;48.770;9.190;2023-04-03T07:38:17;4.77;;;3.47;;
5127;SDS011;2582;48.770;9.190;2023-04-03T07:40:47;4.60;;;3.50;;
5127;SDS011;2582;48.770;9.190;2023-04-03T07:43:14;3.97;;;3.10;;
5127;SDS011;2582;48.770;9.190;2023-04-03T07:45:41;6.20;;;3.73;;
5127;SDS011;2582;48.770;9.190;2023-04-03T07:48:07;4.80;;;3.90;;
5127;SDS011;2582;48.770;9.190;2023-04-03T07:50:32;5.70;;;4.40;;
5127;SDS011;2582;48.770;9.190;2023-04-03T07:52:58;6.23;;;4.60;;
5127;SDS011;2582;48.770;9.190;2023-04-03T07:55:24;6.40;;;3.30;;
5127;SDS011;2582;48.770;9.190;2023-04-03T07:57:50;3.63;;;3.27;;
5127;SDS011;2582;48.770;9.190;2023-04-03T08:00:16;3.40;;;3.10;;
5127;SDS011;2582;48.770;9.190;2023-04-03T08:02:45;3.97;;;3.67;;
5127;SDS011;2582;48.770;9.190;2023-04-03T08:05:17;5.33;;;3.87;;
5127;SDS011;2582;48.770;9.190;2023-04-03T08:07:43;4.57;;;3.37;;
5127;SDS011;2582;48.770;9.190;2023-04-03T08:10:09;3.73;;;3.00;;
5127;SDS011;2582;48.770;9.190;2023-04-03T08:12:34;4.80;;;2.90;;
5127;SDS011;2582;48.770;9.190;2023-04-03T08:15:02;4.23;;;3.30;;
5127;SDS011;2582;48.770;9.190;2023-04-03T08:17:28;6.70;;;3.37;;
5127;SDS011;2582;48.770;9.190;2023-04-03T08:19:54;4.50;;;3.00;;
5127;SDS011;2582;48.770;9.190;2023-04-03T08:22:20;6.70;;;3.60;;
5127;SDS011;2582;48.770;9.190;2023-04-03T08:24:45;3.87;;;3.00;;
5127;SDS011;2582;48.770;9.190;2023-04-03T08:27:11;6.13;;;3.93;;
5127;SDS011;2582;48.770;9.190;2023-04-03T08:29:37;5.63;;;3.60;;
5127;SDS011;2582;48.770;9.190;2023-04-03T08:32:03;6.93;;;4.13;;
5127;SDS011;2582;48.770;9.190;2023-04-03T08:34:30;6.33;;;3.50;;
5127;SDS011;2582;48.770;9.190;2023-04-03T08:36:59;4.80;;;3.50;;
5127;SDS011;2582;48.770;9.190;2023-04-03T08:39:25;4.33;;;3.90;;
5127;SDS011;2582;48.770;9.190;2023-04-03T08:41:52;4.20;;;3.10;;
5127;SDS011;2582;48.770;9.190;2023-04-03T08:49:57;4.17;;;3.77;;
5127;SDS011;2582;48.770;9.190;2023-04-03T08:55:01;3.67;;;3.13;;
5127;SDS011;2582;48.770;9.190;2023-04-03T08:57:34;3.87;;;3.47;;
5127;SDS011;2582;48.770;9.190;2023-04-03T09:00:06;7.17;;;5.00;;
5127;SDS011;2582;48.770;9.190;2023-04-03T09:02:53;3.50;;;3.20;;
5127;SDS011;2582;48.770;9.190;2023-04-03T09:05:27;6.67;;;4.07;;
5127;SDS011;2582;48.770;9.190;2023-04-03T09:11:03;3.73;;;3.43;;
5127;SDS011;2582;48.770;9.190;2023-04-03T09:19:20;4.00;;;3.60;;
5127;SDS011;2582;48.770;9.190;2023-04-03T09:21:53;4.50;;;3.07;;
5127;SDS011;2582;48.770;9.190;2023-04-03T09:24:36;3.37;;;2.70;;
5127;SDS011;2582;48.770;9.190;2023-04-03T09:27:06;6.07;;;3.30;;
5127;SDS011;2582;48.770;9.190;2023-04-03T09:29:35;5.27;;;2.93;;
5127;SDS011;2582;48.770;9.190;2023-04-03T09:32:15;5.90;;;3.60;;
5127;SDS011;2582;48.770;9.190;2023-04-03T11:05:06;4.67;;;2.63;;
5127;SDS011;2582;48.770;9.190;2023-04-03T11:07:53;4.67;;;3.03;;
5127;SDS011;2582;48.770;9.190;2023-04-03T11:10:28;4.07;;;3.30;;
5127;SDS011;2582;48.770;9.190;2023-04-03T11:13:16;2.83;;;2.60;;
5127;SDS011;2582;48.770;9.190;2023-04-03T11:16:23;5.60;;;2.70;;
5127;SDS011;2582;48.770;9.190;2023-04-03T11:18:52;3.00;;;2.70;;
5127;SDS011;2582;48.770;9.190;2023-04-03T11:21:42;4.40;;;2.53;;
5127;SDS011;2582;48.770;9.190;2023-04-03T11:24:24;4.70;;;2.87;;
5127;SDS011;2582;48.770;9.190;2023-04-03T11:26:52;4.57;;;2.70;;
5127;SDS011;2582;48.770;9.190;2023-04-03T11:29:20;3.70;;;2.30;;
5127;SDS011;2582;48.770;9.190;2023-04-03T11:34:37;3.20;;;2.37;;
5127;SDS011;2582;48.770;9.190;2023-04-03T11:37:13;3.10;;;2.47;;
5127;SDS011;2582;48.770;9.190;2023-04-03T11:40:19;3.80;;;2.40;;
5127;SDS011;2582;48.770;9.190;2023-04-03T11:43:02;6.10;;;3.00;;
5127;SDS011;2582;48.770;9.190;2023-04-03T11:51:00;2.70;;;2.30;;
5127;SDS011;2582;48.770;9.190;2023-04-03T12:04:11;2.50;;;1.93;;
5127;SDS011;2582;48.770;9.190;2023-04-03T12:11:52;3.30;;;2.30;;
5127;SDS011;2582;48.770;9.190;2023-04-03T12:14:18;2.63;;;2.43;;
5127;SDS011;2582;48.770;9.190;2023-04-03T12:16:49;3.80;;;2.90;;
5127;SDS011;2582;48.770;9.190;2023-04-03T12:22:06;3.63;;;2.67;;
5127;SDS011;2582;48.770;9.190;2023-04-03T12:24:34;2.80;;;2.07;;
5127;SDS011;2582;48.770;9.190;2023-04-03T12:27:09;4.00;;;2.60;;
5127;SDS011;2582;48.770;9.190;2023-04-03T12:30:05;4.20;;;2.40;;
5127;SDS011;2582;48.770;9.190;2023-04-03T12:32:50;2.83;;;2.63;;
5127;SDS011;2582;48.770;9.190;2023-04-03T12:43:18;6.60;;;2.70;;
5127;SDS011;2582;48.770;9.190;2023-04-03T12:51:21;5.60;;;2.77;;
5127;SDS011;2582;48.770;9.190;2023-04-03T12:53:54;2.90;;;2.40;;
5127;SDS011;2582;48.770;9.190;2023-04-03T12:56:28;2.80;;;2.30;;
5127;SDS011;2582;48.770;9.190;2023-04-03T12:58:56;4.17;;;2.50;;
5127;SDS011;2582;48.770;9.190;2023-04-03T13:01:41;2.50;;;2.00;;
5127;SDS011;2582;48.770;9.190;2023-04-03T13:04:06;3.33;;;2.20;;
5127;SDS011;2582;48.770;9.190;2023-04-03T13:06:40;2.50;;;2.30;;
5127;SDS011;2582;48.770;9.190;2023-04-03T13:09:29;3.03;;;2.37;;
5127;SDS011;2582;48.770;9.190;2023-04-03T13:12:07;2.70;;;2.40;;
5127;SDS011;2582;48.770;9.190;2023-04-03T13:14:37;3.53;;;2.20;;
5127;SDS011;2582;48.770;9.190;2023-04-03T13:17:04;2.73;;;2.17;;
5127;SDS011;2582;48.770;9.190;2023-04-03T13:19:37;2.93;;;2.17;;
5127;SDS011;2582;48.770;9.190;2023-04-03T13:22:16;2.90;;;2.27;;
5127;SDS011;2582;48.770;9.190;2023-04-03T13:25:05;3.30;;;2.07;;
5127;SDS011;2582;48.770;9.190;2023-04-03T13:27:33;3.97;;;2.20;;
5127;SDS011;2582;48.770;9.190;2023-04-03T13:29:59;4.30;;;2.20;;
5127;SDS011;2582;48.770;9.190;2023-04-03T13:32:30;2.80;;;1.90;;
5127;SDS011;2582;48.770;9.190;2023-04-03T13:34:56;3.03;;;2.47;;
5127;SDS011;2582;48.770;9.190;2023-04-03T13:37:25;2.37;;;2.13;;
5127;SDS011;2582;48.770;9.190;2023-04-03T13:39:58;3.17;;;2.30;;
5127;SDS011;2582;48.770;9.190;2023-04-03T13:42:36;4.70;;;2.30;;
5127;SDS011;2582;48.770;9.190;2023-04-03T13:47:46;4.90;;;2.50;;
5127;SDS011;2582;48.770;9.190;2023-04-03T13:52:54;4.40;;;2.43;;
5127;SDS011;2582;48.770;9.190;2023-04-03T13:55:28;4.23;;;2.30;;
5127;SDS011;2582;48.770;9.190;2023-04-03T13:58:03;2.60;;;2.40;;
5127;SDS011;2582;48.770;9.190;2023-04-03T14:00:39;3.37;;;2.60;;
5127;SDS011;2582;48.770;9.190;2023-04-03T14:06:06;2.83;;;2.53;;
5127;SDS011;2582;48.770;9.190;2023-04-03T14:08:35;3.40;;;3.00;;
5127;SDS011;2582;48.770;9.190;2023-04-03T14:11:01;2.57;;;2.30;;
5127;SDS011;2582;48.770;9.190;2023-04-03T14:13:29;3.17;;;2.50;;
5127;SDS011;2582;48.770;9.190;2023-04-03T14:15:55;2.67;;;2.47;;
5127;SDS011;2582;48.770;9.190;2023-04-03T14:18:21;5.37;;;3.80;;
5127;SDS011;2582;48.770;9.190;2023-04-03T14:20:47;4.73;;;3.00;;
5127;SDS011;2582;48.770;9.190;2023-04-03T14:23:13;5.20;;;2.93;;
5127;SDS011;2582;48.770;9.190;2023-04-03T14:25:39;2.83;;;2.43;;
5127;SDS011;2582;48.770;9.190;2023-04-03T14:28:16;4.60;;;3.10;;
5127;SDS011;2582;48.770;9.190;2023-04-03T14:30:44;2.53;;;2.33;;
5127;SDS011;2582;48.770;9.190;2023-04-03T14:33:15;5.03;;;3.53;;
5127;SDS011;2582;48.770;9.190;2023-04-03T14:35:43;5.10;;;2.87;;
5127;SDS011;2582;48.770;9.190;2023-04-03T14:38:28;3.17;;;2.30;;
5127;SDS011;2582;48.770;9.190;2023-04-03T14:40:56;4.40;;;2.30;;
5127;SDS011;2582;48.770;9.190;2023-04-03T14:43:22;3.40;;;2.40;;
5127;SDS011;2582;48.770;9.190;2023-04-03T14:45:48;3.57;;;2.50;;
5127;SDS011;2582;48.770;9.190;2023-04-03T14:48:15;3.10;;;2.70;;
5127;SDS011;2582;48.770;9.190;2023-04-03T14:50:47;3.70;;;2.77;;
5127;SDS011;2582;48.770;9.190;2023-04-03T14:53:13;4.70;;;3.03;;
5127;SDS011;2582;48.770;9.190;2023-04-03T14:55:40;5.67;;;2.70;;
5127;SDS011;2582;48.770;9.190;2023-04-03T14:58:11;6.13;;;3.10;;
5127;SDS011;2582;48.770;9.190;2023-04-03T15:00:39;5.10;;;2.60;;
5127;SDS011;2582;48.770;9.190;2023-04-03T15:03:05;7.23;;;2.77;;
5127;SDS011;2582;48.770;9.190;2023-04-03T15:05:31;3.70;;;2.67;;
5127;SDS011;2582;48.770;9.190;2023-04-03T15:07:57;6.47;;;2.80;;
5127;SDS011;2582;48.770;9.190;2023-04-03T15:10:26;5.03;;;2.53;;
5127;SDS011;2582;48.770;9.190;2023-04-03T15:12:53;6.47;;;3.43;;
5127;SDS011;2582;48.770;9.190;2023-04-03T15:15:20;3.80;;;2.70;;
5127;SDS011;2582;48.770;9.190;2023-04-03T15:17:50;4.07;;;2.63;;
5127;SDS011;2582;48.770;9.190;2023-04-03T15:20:19;3.10;;;2.80;;
5127;SDS011;2582;48.770;9.190;2023-04-03T15:22:47;3.80;;;2.73;;
5127;SDS011;2582;48.770;9.190;2023-04-03T15:25:13;4.27;;;3.10;;
5127;SDS011;2582;48.770;9.190;2023-04-03T15:27:39;3.43;;;2.30;;
5127;SDS011;2582;48.770;9.190;2023-04-03T15:30:05;3.93;;;2.70;;
5127;SDS011;2582;48.770;9.190;2023-04-03T15:32:32;2.70;;;2.03;;
5127;SDS011;2582;48.770;9.190;2023-04-03T15:34:59;2.80;;;2.50;;
5127;SDS011;2582;48.770;9.190;2023-04-03T15:37:25;3.27;;;2.53;;
5127;SDS011;2582;48.770;9.190;2023-04-03T15:39:50;3.57;;;2.30;;
5127;SDS011;2582;48.770;9.190;2023-04-03T15:42:16;3.00;;;2.07;;
5127;SDS011;2582;48.770;9.190;2023-04-03T15:44:41;3.60;;;3.30;;
5127;SDS011;2582;48.770;9.190;2023-04-03T15:47:07;3.80;;;2.90;;
5127;SDS011;2582;48.770;9.190;2023-04-03T15:49:33;3.80;;;2.87;;
5127;SDS011;2582;48.770;9.190;2023-04-03T15:51:59;4.23;;;2.57;;
5127;SDS011;2582;48.770;9.190;2023-04-03T15:54:25;3.70;;;3.00;;
5127;SDS011;2582;48.770;9.190;2023-04-03T15:56:52;2.90;;;2.20;;
5127;SDS011;2582;48.770;9.190;2023-04-03T15:59:18;2.70;;;2.13;;
5127;SDS011;2582;48.770;9.190;2023-04-03T16:01:44;2.77;;;2.53;;
5127;SDS011;2582;48.770;9.190;2023-04-03T16:04:10;4.00;;;2.97;;
5127;SDS011;2582;48.770;9.190;2023-04-03T16:06:36;2.73;;;2.03;;
5127;SDS011;2582;48.770;9.190;2023-04-03T16:09:03;3.17;;;2.87;;
5127;SDS011;2582;48.770;9.190;2023-04-03T16:11:29;2.90;;;2.10;;
5127;SDS011;2582;48.770;9.190;2023-04-03T16:13:56;3.63;;;2.50;;
5127;SDS011;2582;48.770;9.190;2023-04-03T16:16:22;3.37;;;2.53;;
5127;SDS011;2582;48.770;9.190;2023-04-03T16:18:49;4.80;;;2.60;;
5127;SDS011;2582;48.770;9.190;2023-04-03T16:21:15;5.50;;;4.40;;
5127;SDS011;2582;48.770;9.190;2023-04-03T16:23:42;3.97;;;3.23;;
5127;SDS011;2582;48.770;9.190;2023-04-03T16:26:08;3.60;;;2.60;;
5127;SDS011;2582;48.770;9.190;2023-04-03T16:28:34;3.10;;;2.63;;
5127;SDS011;2582;48.770;9.190;2023-04-03T16:31:00;5.20;;;3.10;;
5127;SDS011;2582;48.770;9.190;2023-04-03T16:33:26;4.47;;;2.47;;
5127;SDS011;2582;48.770;9.190;2023-04-03T16:35:52;3.20;;;2.37;;
5127;SDS011;2582;48.770;9.190;2023-04-03T16:38:18;3.23;;;2.40;;
5127;SDS011;2582;48.770;9.190;2023-04-03T16:40:44;2.80;;;2.03;;
5127;SDS011;2582;48.770;9.190;2023-04-03T16:43:10;2.87;;;2.37;;
5127;SDS011;2582;48.770;9.190;2023-04-03T16:45:36;6.30;;;2.60;;
5127;SDS011;2582;48.770;9.190;2023-04-03T16:48:01;3.63;;;2.00;;
5127;SDS011;2582;48.770;9.190;2023-04-03T16:50:27;2.80;;;2.10;;
5127;SDS011;2582;48.770;9.190;2023-04-03T16:52:53;3.63;;;2.50;;
5127;SDS011;2582;48.770;9.190;2023-04-03T16:55:18;5.17;;;3.00;;
5127;SDS011;2582;48.770;9.190;2023-04-03T16:57:45;3.87;;;2.67;;
5127;SDS011;2582;48.770;9.190;2023-04-03T17:00:11;3.13;;;2.83;;
5127;SDS011;2582;48.770;9.190;2023-04-03T17:02:37;4.13;;;3.10;;
5127;SDS011;2582;48.770;9.190;2023-04-03T17:05:04;2.70;;;2.50;;
5127;SDS011;2582;48.770;9.190;2023-04-03T17:07:29;2.87;;;2.67;;
5127;SDS011;2582;48.770;9.190;2023-04-03T17:09:55;2.97;;;2.40;;
5127;SDS011;2582;48.770;9.190;2023-04-03T17:12:21;2.80;;;2.20;;
5127;SDS011;2582;48.770;9.190;2023-04-03T17:14:47;4.30;;;2.70;;
5127;SDS011;2582;48.770;9.190;2023-04-03T17:17:16;3.37;;;2.47;;
5127;SDS011;2582;48.770;9.190;2023-04-03T17:19:46;2.63;;;2.40;;
5127;SDS011;2582;48.770;9.190;2023-04-03T17:22:11;3.70;;;2.80;;
5127;SDS011;2582;48.770;9.190;2023-04-03T17:24:37;3.30;;;2.80;;
5127;SDS011;2582;48.770;9.190;2023-04-03T17:27:03;3.23;;;2.70;;
5127;SDS011;2582;48.770;9.190;2023-04-03T17:29:29;2.80;;;2.60;;
5127;SDS011;2582;48.770;9.190;2023-04-03T17:31:55;3.10;;;2.70;;
5127;SDS011;2582;48.770;9.190;2023-04-03T17:34:21;3.77;;;2.50;;
5127;SDS011;2582;48.770;9.190;2023-04-03T17:36:46;2.80;;;2.60;;
5127;SDS011;2582;48.770;9.190;2023-04-03T17:39:12;3.80;;;2.40;;
5127;SDS011;2582;48.770;9.190;2023-04-03T17:41:38;4.70;;;3.10;;
5127;SDS011;2582;48.770;9.190;2023-04-03T17:44:04;3.80;;;3.47;;
5127;SDS011;2582;48.770;9.190;2023-04-03T17:46:30;4.77;;;3.40;;
5127;SDS011;2582;48.770;9.190;2023-04-03T17:48:56;4.60;;;3.20;;
5127;SDS011;2582;48.770;9.190;2023-04-03T17:51:23;3.23;;;2.90;;
5127;SDS011;2582;48.770;9.190;2023-04-03T17:53:50;3.53;;;3.20;;
5127;SDS011;2582;48.770;9.190;2023-04-03T17:56:16;3.60;;;3.10;;
5127;SDS011;2582;48.770;9.190;2023-04-03T17:58:51;3.30;;;3.00;;
5127;SDS011;2582;48.770;9.190;2023-04-03T18:01:19;3.90;;;3.50;;